createdAt,value
2023-04-11T00:03:43.236Z,3.40
2023-04-11T00:07:47.813Z,3.30
2023-04-11T00:11:52.224Z,3.21
2023-04-11T00:15:56.044Z,3.21
2023-04-11T00:20:01.906Z,3.30
2023-04-11T00:24:13.232Z,3.21
2023-04-11T00:28:20.401Z,3.08
2023-04-11T00:32:27.853Z,3.04
2023-04-11T00:36:32.992Z,3.09
2023-04-11T00:40:36.318Z,3.06
2023-04-11T00:44:40.878Z,3.00
2023-04-11T00:48:44.041Z,2.91
2023-04-11T00:52:49.511Z,2.93
2023-04-11T00:56:54.315Z,2.99
2023-04-11T01:00:58.976Z,3.01
2023-04-11T01:05:02.430Z,2.97
2023-04-11T01:09:05.466Z,2.87
2023-04-11T01:13:08.853Z,2.78
2023-04-11T01:17:14.538Z,2.70
2023-04-11T01:21:19.624Z,2.65
2023-04-11T01:25:27.502Z,2.62
2023-04-11T01:29:30.426Z,2.55
2023-04-11T01:33:33.273Z,2.52
2023-04-11T01:37:38.269Z,2.51
2023-04-11T01:41:43.732Z,2.47
2023-04-11T01:45:46.716Z,2.44
2023-04-11T01:49:50.931Z,2.51
2023-04-11T01:53:53.423Z,2.62
2023-04-11T01:57:57.867Z,2.70
2023-04-11T02:02:00.753Z,2.71
2023-04-11T02:06:04.074Z,2.67
2023-04-11T02:10:10.337Z,2.72
2023-04-11T02:14:16.629Z,2.73
2023-04-11T02:18:19.614Z,2.73
2023-04-11T02:22:22.671Z,2.70
2023-04-11T02:26:27.094Z,2.69
2023-04-11T02:30:31.946Z,2.65
2023-04-11T02:34:35.065Z,2.67
2023-04-11T02:38:37.811Z,2.76
2023-04-11T02:42:44.881Z,2.76
2023-04-11T02:46:49.184Z,2.75
2023-04-11T02:50:52.326Z,2.64
2023-04-11T02:54:55.352Z,2.58
2023-04-11T02:58:58.669Z,2.62
2023-04-11T03:03:07.730Z,2.68
2023-04-11T03:07:14.547Z,2.70
2023-04-11T03:11:17.626Z,2.70
2023-04-11T03:15:20.546Z,2.60
2023-04-11T03:19:28.060Z,2.61
2023-04-11T03:23:32.236Z,2.63
2023-04-11T03:27:35.313Z,2.65
2023-04-11T03:31:38.571Z,2.87
2023-04-11T03:35:42.934Z,2.86
2023-04-11T03:39:46.260Z,3.05
2023-04-11T03:43:48.986Z,3.09
2023-04-11T03:47:52.174Z,2.98
2023-04-11T03:51:59.260Z,2.86
2023-04-11T03:56:01.821Z,2.86
2023-04-11T04:00:07.760Z,2.94
2023-04-11T04:04:14.941Z,3.03
2023-04-11T04:08:19.541Z,3.03
2023-04-11T04:12:22.685Z,3.02
2023-04-11T04:16:25.315Z,2.98
2023-04-11T04:20:28.392Z,2.98
2023-04-11T04:24:38.714Z,3.03
2023-04-11T04:28:46.221Z,3.21
2023-04-11T04:32:49.055Z,3.34
2023-04-11T04:36:56.692Z,3.42
2023-04-11T04:41:06.300Z,3.71
2023-04-11T04:45:10.648Z,4.07
2023-04-11T04:49:13.603Z,4.28
2023-04-11T04:53:16.582Z,5.53
2023-04-11T04:57:21.379Z,6.61
2023-04-11T05:01:27.998Z,7.38
2023-04-11T05:05:31.063Z,9.86
2023-04-11T05:09:34.184Z,11.81
2023-04-11T05:13:38.422Z,13.56
2023-04-11T05:17:43.039Z,14.82
2023-04-11T05:21:50.326Z,15.97
2023-04-11T05:25:53.451Z,16.69
2023-04-11T05:30:05.276Z,17.91
2023-04-11T05:34:11.698Z,18.95
2023-04-11T05:38:14.829Z,20.24
2023-04-11T05:42:18.800Z,21.04
2023-04-11T05:46:26.020Z,21.85
2023-04-11T05:50:28.561Z,22.60
2023-04-11T05:54:36.120Z,23.19
2023-04-11T05:58:42.421Z,23.46
2023-04-11T06:02:48.057Z,23.55
2023-04-11T06:06:53.269Z,23.56
2023-04-11T06:10:56.130Z,24.37
2023-04-11T06:14:58.407Z,24.55
2023-04-11T06:19:02.611Z,24.96
2023-04-11T06:23:05.819Z,24.90
2023-04-11T06:27:11.010Z,25.33
2023-04-11T06:31:14.271Z,25.84
2023-04-11T06:35:20.729Z,26.08
2023-04-11T06:39:23.783Z,26.07
2023-04-11T06:43:26.985Z,26.28
2023-04-11T06:47:29.909Z,25.95
2023-04-11T06:51:34.747Z,25.85
2023-04-11T06:55:37.618Z,26.11
2023-04-11T06:59:40.445Z,25.43
2023-04-11T07:03:46.341Z,26.08
2023-04-11T07:07:54.287Z,26.07
2023-04-11T07:11:59.332Z,26.66
2023-04-11T07:16:04.208Z,26.86
2023-04-11T07:20:09.959Z,26.46
2023-04-11T07:24:14.572Z,26.17
2023-04-11T07:28:18.079Z,26.12
2023-04-11T07:32:22.093Z,26.70
2023-04-11T07:36:25.030Z,26.91
2023-04-11T07:40:29.841Z,26.79
2023-04-11T07:44:32.975Z,26.42
2023-04-11T07:48:38.333Z,25.81
2023-04-11T07:52:44.556Z,26.45
2023-04-11T07:56:51.045Z,26.29
2023-04-11T08:00:54.084Z,26.20
2023-04-11T08:04:57.435Z,25.92
2023-04-11T08:09:02.126Z,25.99
2023-04-11T08:13:06.502Z,26.19
2023-04-11T08:17:21.136Z,25.45
2023-04-11T08:21:33.305Z,25.92
2023-04-11T08:25:38.054Z,26.28
2023-04-11T08:29:42.531Z,25.60
2023-04-11T08:33:45.128Z,25.29
2023-04-11T08:37:53.962Z,25.22
2023-04-11T08:41:57.085Z,25.39
2023-04-11T08:46:03.095Z,24.79
2023-04-11T08:50:06.794Z,25.34
2023-04-11T08:54:10.890Z,26.01
2023-04-11T08:58:16.502Z,26.10
2023-04-11T09:02:22.034Z,24.94
2023-04-11T09:06:26.898Z,25.24
2023-04-11T09:10:29.944Z,25.52
2023-04-11T09:14:33.246Z,24.87
2023-04-11T09:18:41.584Z,24.80
2023-04-11T09:22:44.731Z,23.93
2023-04-11T09:26:49.702Z,24.55
2023-04-11T09:30:55.881Z,23.45
2023-04-11T09:35:17.289Z,23.37
2023-04-11T09:39:23.858Z,23.85
2023-04-11T09:43:26.849Z,23.87
2023-04-11T09:47:34.230Z,22.07
2023-04-11T09:51:38.671Z,21.90
2023-04-11T09:55:42.112Z,22.00
2023-04-11T09:59:46.087Z,20.71
2023-04-11T10:03:52.262Z,20.36
2023-04-11T10:08:03.348Z,20.09
2023-04-11T10:12:07.230Z,19.93
2023-04-11T10:16:12.631Z,19.47
2023-04-11T10:20:47.728Z,19.17
2023-04-11T10:25:18.209Z,18.10
2023-04-11T10:29:51.786Z,17.93
2023-04-11T10:34:16.121Z,17.87
2023-04-11T10:38:52.313Z,17.82
2023-04-11T10:43:22.771Z,17.81
2023-04-11T10:47:26.446Z,18.09
2023-04-11T10:51:30.328Z,18.37
2023-04-11T10:55:46.345Z,18.51
2023-04-11T11:00:16.378Z,18.82
2023-04-11T11:04:20.234Z,19.20
2023-04-11T11:08:30.897Z,18.80
2023-04-11T11:12:33.887Z,18.45
2023-04-11T11:16:38.478Z,18.76
2023-04-11T11:20:45.125Z,19.11
2023-04-11T11:24:48.324Z,19.30
2023-04-11T11:28:51.401Z,19.31
2023-04-11T11:32:59.301Z,19.12
2023-04-11T11:37:04.884Z,18.77
2023-04-11T11:41:08.217Z,18.51
2023-04-11T11:45:17.787Z,18.45
2023-04-11T11:49:22.193Z,18.60
2023-04-11T11:53:34.464Z,18.95
2023-04-11T11:57:38.323Z,19.39
2023-04-11T12:01:43.540Z,19.55
2023-04-11T12:05:53.987Z,19.15
2023-04-11T12:10:03.144Z,18.74
2023-04-11T12:14:05.796Z,18.66
2023-04-11T12:18:08.667Z,18.02
2023-04-11T12:22:13.242Z,17.79
2023-04-11T12:26:21.112Z,17.76
2023-04-11T12:30:26.786Z,17.55
2023-04-11T12:34:31.326Z,17.09
2023-04-11T12:38:38.194Z,16.99
2023-04-11T12:46:47.854Z,17.53
2023-04-11T12:50:53.428Z,18.04
2023-04-11T12:55:00.510Z,18.29
2023-04-11T12:59:03.499Z,18.16
2023-04-11T13:03:07.093Z,18.14
2023-04-11T13:07:10.209Z,18.03
2023-04-11T13:11:14.557Z,17.84
2023-04-11T13:15:18.112Z,17.58
2023-04-11T13:19:22.215Z,17.72
2023-04-11T13:23:26.604Z,17.76
2023-04-11T13:27:30.770Z,18.10
2023-04-11T13:31:33.832Z,18.43
2023-04-11T13:35:37.094Z,18.46
2023-04-11T13:39:43.794Z,18.39
2023-04-11T13:43:49.591Z,18.25
2023-04-11T13:47:52.724Z,17.68
2023-04-11T13:51:58.842Z,17.30
2023-04-11T13:56:04.023Z,17.11
2023-04-11T14:00:12.390Z,16.91
2023-04-11T14:04:15.458Z,16.80
2023-04-11T14:08:21.115Z,16.82
2023-04-11T14:12:28.317Z,16.97
2023-04-11T14:16:33.378Z,17.03
2023-04-11T14:20:36.335Z,17.04
2023-04-11T14:24:39.553Z,17.10
2023-04-11T14:28:42.680Z,17.28
2023-04-11T14:32:47.340Z,17.35
2023-04-11T14:36:52.621Z,17.46
2023-04-11T14:40:57.438Z,17.58
2023-04-11T14:45:03.630Z,17.49
2023-04-11T14:49:08.685Z,17.44
2023-04-11T14:53:11.744Z,17.35
2023-04-11T14:57:16.717Z,17.23
2023-04-11T15:01:20.403Z,17.20
2023-04-11T15:05:26.070Z,17.04
2023-04-11T15:09:29.131Z,16.78
2023-04-11T15:13:32.276Z,16.84
2023-04-11T15:17:41.997Z,16.57
2023-04-11T15:21:49.002Z,16.46
2023-04-11T15:25:55.562Z,16.34
2023-04-11T15:29:59.873Z,16.26
2023-04-11T15:34:04.291Z,15.99
2023-04-11T15:38:08.960Z,15.88
2023-04-11T15:42:14.529Z,15.68
2023-04-11T15:46:17.673Z,15.50
2023-04-11T15:50:20.983Z,15.33
2023-04-11T15:54:25.800Z,15.18
2023-04-11T15:58:30.489Z,15.00
2023-04-11T16:02:34.924Z,14.82
2023-04-11T16:06:37.868Z,14.69
2023-04-11T16:10:42.098Z,14.61
2023-04-11T16:14:45.998Z,14.57
2023-04-11T16:18:48.721Z,14.38
2023-04-11T16:22:51.854Z,14.31
2023-04-11T16:26:57.208Z,14.23
2023-04-11T16:31:03.204Z,14.02
2023-04-11T16:35:07.481Z,13.81
2023-04-11T16:39:13.908Z,13.75
2023-04-11T16:43:18.444Z,13.71
2023-04-11T16:47:26.383Z,13.62
2023-04-11T16:51:31.211Z,13.39
2023-04-11T16:55:34.368Z,13.19
2023-04-11T16:59:39.077Z,13.03
2023-04-11T17:03:43.387Z,12.89
2023-04-11T17:07:46.860Z,12.77
2023-04-11T17:12:04.739Z,12.64
2023-04-11T17:16:10.565Z,12.49
2023-04-11T17:20:14.832Z,12.17
2023-04-11T17:24:18.028Z,11.86
2023-04-11T17:28:21.704Z,11.64
2023-04-11T17:32:28.885Z,11.34
2023-04-11T17:36:32.557Z,11.00
2023-04-11T17:40:35.605Z,10.75
2023-04-11T17:44:41.413Z,10.45
2023-04-11T17:48:46.534Z,10.18
2023-04-11T17:52:49.764Z,9.94
2023-04-11T17:56:53.226Z,9.70
2023-04-11T18:00:59.483Z,9.45
2023-04-11T18:05:13.307Z,9.26
2023-04-11T18:09:28.297Z,9.11
2023-04-11T18:13:31.826Z,8.98
2023-04-11T18:17:36.134Z,8.85
2023-04-11T18:21:41.746Z,8.71
2023-04-11T18:25:47.382Z,8.57
2023-04-11T18:29:52.224Z,8.42
2023-04-11T18:33:56.391Z,8.26
2023-04-11T18:38:15.758Z,8.16
2023-04-11T18:42:19.659Z,8.03
2023-04-11T18:46:24.282Z,7.94
2023-04-11T18:50:30.865Z,7.84
2023-04-11T18:54:34.487Z,7.74
2023-04-11T18:58:45.396Z,7.67
2023-04-11T19:02:50.913Z,7.54
2023-04-11T19:06:54.077Z,7.42
2023-04-11T19:10:58.699Z,7.32
2023-04-11T19:15:01.913Z,7.21
2023-04-11T19:19:07.603Z,7.11
2023-04-11T19:23:10.368Z,6.97
2023-04-11T19:27:18.511Z,6.85
2023-04-11T19:31:24.637Z,6.91
2023-04-11T19:35:27.903Z,7.09
2023-04-11T19:39:38.103Z,7.36
2023-04-11T19:43:43.543Z,7.66
2023-04-11T19:47:46.808Z,7.87
2023-04-11T19:51:50.083Z,8.02
2023-04-11T19:55:56.582Z,8.06
2023-04-11T20:00:00.979Z,8.00
2023-04-11T20:04:07.340Z,7.95
2023-04-11T20:08:13.691Z,8.02
2023-04-11T20:12:16.789Z,8.19
2023-04-11T20:16:22.693Z,8.38
2023-04-11T20:20:30.329Z,8.62
2023-04-11T20:24:33.486Z,8.73
2023-04-11T20:28:38.022Z,8.81
2023-04-11T20:32:43.468Z,8.93
2023-04-11T20:36:49.118Z,9.02
2023-04-11T20:40:55.475Z,9.13
2023-04-11T20:45:03.680Z,9.15
2023-04-11T20:49:07.791Z,9.06
2023-04-11T20:53:10.677Z,8.91
2023-04-11T20:57:22.562Z,8.79
2023-04-11T21:01:26.578Z,8.70
2023-04-11T21:05:32.712Z,8.63
2023-04-11T21:09:36.598Z,8.60
2023-04-11T21:13:40.898Z,8.58
2023-04-11T21:17:47.745Z,8.54
2023-04-11T21:21:54.126Z,8.43
2023-04-11T21:26:09.676Z,8.25
2023-04-11T21:30:19.738Z,8.02
2023-04-11T21:34:31.999Z,8.11
2023-04-11T21:38:40.982Z,8.08
2023-04-11T21:42:46.429Z,8.06
2023-04-11T21:46:49.175Z,7.99
2023-04-11T21:50:52.322Z,7.92
2023-04-11T21:54:58.685Z,7.94
2023-04-11T21:59:01.515Z,8.05
2023-04-11T22:03:08.350Z,8.08
2023-04-11T22:07:14.821Z,8.15
2023-04-11T22:11:20.554Z,8.31
2023-04-11T22:15:24.507Z,8.44
2023-04-11T22:19:28.747Z,8.52
2023-04-11T22:23:33.290Z,8.59
2023-04-11T22:27:38.610Z,8.63
2023-04-11T22:31:42.081Z,8.63
2023-04-11T22:35:48.588Z,8.65
2023-04-11T22:39:51.838Z,8.68
2023-04-11T22:44:00.130Z,8.65
2023-04-11T22:48:04.439Z,8.67
2023-04-11T22:52:07.633Z,8.66
2023-04-11T22:56:11.997Z,8.67
2023-04-11T23:00:17.765Z,8.69
2023-04-11T23:04:22.279Z,8.67
2023-04-11T23:08:25.267Z,8.67
2023-04-11T23:12:30.151Z,8.62
2023-04-11T23:16:35.272Z,8.56
2023-04-11T23:20:38.604Z,8.46
2023-04-11T23:24:41.895Z,8.37
2023-04-11T23:28:45.185Z,8.33
2023-04-11T23:32:49.450Z,8.28
2023-04-11T23:36:54.272Z,8.18
2023-04-11T23:40:57.258Z,8.14
2023-04-11T23:45:00.157Z,8.07
2023-04-11T23:49:07.996Z,8.04
2023-04-11T23:53:10.981Z,8.00
2023-04-11T23:57:14.109Z,7.99
